Date,TemperatureHighF,TemperatureAvgF,TemperatureLowF,DewpointHighF,DewpointAvgF,DewpointLowF,HumidityHigh,HumidityAvg,HumidityLow,PressureMaxIn,PressureMinIn,WindSpeedMaxMPH,WindSpeedAvgMPH,GustSpeedMaxMPH,PrecipitationSumIn
2013-8-1,85,75,70,76,72,69,100,89,62,30.08,29.87,3,0,8,23.86
2013-8-2,86,77,67,71,68,65,97,75,53,30.02,29.92,1,0,6,23.86
2013-8-3,80,73,69,72,68,66,93,85,66,30.03,29.99,3,0,10,23.86
2013-8-4,80,74,65,59,58,56,75,59,44,30.09,30.01,5,1,14,23.86
2013-8-5,80,71,60,62,58,52,88,66,41,30.16,30.07,3,0,8,23.86
2013-8-6,73,70,69,70,67,61,98,88,78,30.11,30.06,2,0,7,23.86
2013-8-7,85,80,78,76,74,73,87,83,75,30.08,30.05,1,0,6,23.86
2013-8-8,87,80,74,79,75,72,96,87,70,30.09,30.03,4,1,10,23.86
2013-8-9,91,83,76,82,77,73,97,82,63,30.03,29.92,5,1,16,23.86
2013-8-10,84,79,73,74,69,61,90,73,49,30.14,30.01,4,0,8,23.86
2013-8-11,84,78,73,74,71,67,94,78,57,30.17,30.06,3,0,11,23.86
2013-8-12,88,80,72,76,71,67,98,76,51,30.08,29.97,5,1,12,23.86
2013-8-13,84,78,71,76,73,70,99,85,63,29.97,29.80,4,0,11,23.86
2013-8-14,75,68,60,69,54,50,96,64,47,30.16,29.88,7,1,18,23.86
2013-8-15,77,67,56,58,54,48,94,66,37,30.24,30.14,4,0,8,23.86
2013-8-16,78,69,58,66,58,54,92,70,45,30.23,30.18,0,0,0,23.86
2013-8-17,80,76,73,64,60,58,73,59,48,30.29,30.26,3,0,9,23.86
2013-8-18,73,70,66,68,65,62,98,87,70,30.29,30.22,2,0,6,23.86
2013-8-19,76,70,63,70,66,62,98,89,80,30.23,30.13,2,0,8,23.86
2013-8-20,86,77,66,74,69,64,100,80,55,30.22,30.14,0,0,0,23.86
2013-8-21,89,79,71,78,73,69,99,83,59,30.25,30.13,2,0,10,23.86
2013-8-22,86,79,72,74,71,68,98,77,56,30.15,29.99,4,1,12,23.86
2013-8-23,77,72,65,73,68,62,97,87,73,30.17,29.99,1,0,8,23.86
2013-8-24,82,72,62,65,62,58,96,74,45,30.38,30.17,4,1,12,23.86
2013-8-25,82,72,64,69,62,58,96,73,52,30.45,30.32,3,0,11,23.86
2013-8-26,86,75,63,69,63,58,87,70,47,30.34,30.08,1,0,5,23.86
2013-8-27,90,80,72,76,72,67,96,77,60,30.07,29.94,5,0,11,23.86
2013-8-28,80,76,74,77,74,70,98,92,80,29.98,29.88,4,0,10,23.86
2013-8-29,84,77,73,74,72,69,99,86,61,30.07,29.89,5,0,15,23.86
2013-8-30,86,78,70,75,72,69,98,82,62,30.10,29.95,5,0,12,23.86
2013-8-31,89,80,71,77,73,69,95,80,61,29.97,29.86,3,0,12,23.86